createdAt,value
2024-03-16T00:00:51.155Z,6.201
2024-03-16T00:01:51.149Z,6.192
2024-03-16T00:02:51.169Z,6.201
2024-03-16T00:03:51.185Z,6.210
2024-03-16T00:04:51.140Z,6.201
2024-03-16T00:05:51.148Z,6.210
2024-03-16T00:06:51.236Z,6.164
2024-03-16T00:07:51.168Z,6.160
2024-03-16T00:08:51.166Z,6.176
2024-03-16T00:09:51.249Z,6.166
2024-03-16T00:10:51.206Z,6.166
2024-03-16T00:11:51.180Z,6.152
2024-03-16T00:12:51.257Z,6.167
2024-03-16T00:13:51.199Z,6.181
2024-03-16T00:14:51.211Z,6.181
2024-03-16T00:15:51.337Z,6.181
2024-03-16T00:16:51.239Z,6.135
2024-03-16T00:17:51.319Z,6.135
2024-03-16T00:18:51.281Z,6.125
2024-03-16T00:19:51.243Z,6.144
2024-03-16T00:20:51.245Z,6.144
2024-03-16T00:21:51.356Z,6.089
2024-03-16T00:22:51.269Z,6.098
2024-03-16T00:23:51.268Z,6.048
2024-03-16T00:24:51.384Z,6.043
2024-03-16T00:25:51.306Z,6.048
2024-03-16T00:26:51.294Z,6.039
2024-03-16T00:27:51.340Z,6.034
2024-03-16T00:28:51.309Z,6.047
2024-03-16T00:29:51.314Z,6.037
2024-03-16T00:30:51.379Z,6.032
2024-03-16T00:31:51.333Z,5.983
2024-03-16T00:32:51.381Z,5.969
2024-03-16T00:33:51.375Z,6.019
2024-03-16T00:34:51.344Z,6.024
2024-03-16T00:35:51.354Z,6.029
2024-03-16T00:36:51.429Z,6.042
2024-03-16T00:37:51.432Z,6.042
2024-03-16T00:38:51.451Z,6.000
2024-03-16T00:39:51.473Z,6.019
2024-03-16T00:40:51.408Z,6.005
2024-03-16T00:41:51.413Z,5.987
2024-03-16T00:42:51.429Z,6.001
2024-03-16T00:43:51.422Z,5.998
2024-03-16T00:44:51.436Z,6.008
2024-03-16T00:45:51.537Z,6.008
2024-03-16T00:46:51.438Z,6.007
2024-03-16T00:47:51.476Z,6.007
2024-03-16T00:48:51.480Z,5.985
2024-03-16T00:49:51.478Z,5.985
2024-03-16T00:50:51.483Z,5.971
2024-03-16T00:51:51.589Z,5.945
2024-03-16T00:52:51.502Z,5.940
2024-03-16T00:53:51.529Z,5.932
2024-03-16T00:54:51.547Z,5.923
2024-03-16T00:55:51.511Z,5.928
2024-03-16T00:56:51.523Z,5.888
2024-03-16T00:57:51.557Z,5.883
2024-03-16T00:58:51.568Z,5.906
2024-03-16T00:59:51.586Z,5.906
2024-03-16T01:00:51.619Z,5.924
2024-03-16T01:01:51.658Z,5.876
2024-03-16T01:02:51.588Z,5.871
2024-03-16T01:03:51.658Z,5.853
2024-03-16T01:04:51.631Z,5.863
2024-03-16T01:05:51.621Z,5.858
2024-03-16T01:06:51.680Z,5.919
2024-03-16T01:07:51.659Z,5.933
2024-03-16T01:08:51.645Z,5.919
2024-03-16T01:09:51.713Z,5.919
2024-03-16T01:10:51.694Z,5.933
2024-03-16T01:11:51.666Z,5.911
2024-03-16T01:12:51.798Z,5.911
2024-03-16T01:13:51.686Z,5.920
2024-03-16T01:14:51.695Z,5.911
2024-03-16T01:15:51.720Z,5.911
2024-03-16T01:16:51.714Z,5.964
2024-03-16T01:17:51.732Z,5.955
2024-03-16T01:18:51.766Z,5.957
2024-03-16T01:19:51.730Z,5.957
2024-03-16T01:20:51.739Z,5.957
2024-03-16T01:21:51.770Z,5.979
2024-03-16T01:22:51.740Z,5.979
2024-03-16T01:23:51.750Z,6.011
2024-03-16T01:24:51.785Z,6.015
2024-03-16T01:25:51.779Z,6.020
2024-03-16T01:26:51.791Z,6.015
2024-03-16T01:27:51.840Z,6.025
2024-03-16T01:28:51.833Z,6.036
2024-03-16T01:29:51.827Z,6.022
2024-03-16T01:30:51.838Z,6.022
2024-03-16T01:31:51.828Z,6.109
2024-03-16T01:32:51.879Z,6.100
2024-03-16T01:33:51.857Z,6.100
2024-03-16T01:34:51.847Z,6.100
2024-03-16T01:35:51.868Z,6.105
2024-03-16T01:36:51.862Z,6.064
2024-03-16T01:37:51.869Z,6.059
2024-03-16T01:38:51.892Z,6.051
2024-03-16T01:39:51.994Z,6.051
2024-03-16T01:40:51.945Z,6.051
2024-03-16T01:41:51.919Z,6.106
2024-03-16T01:42:51.954Z,6.087
2024-03-16T01:43:51.929Z,6.195
2024-03-16T01:44:51.938Z,6.195
2024-03-16T01:45:51.987Z,6.185
2024-03-16T01:46:51.950Z,6.241
2024-03-16T01:47:52.016Z,6.246
2024-03-16T01:48:52.009Z,6.205
2024-03-16T01:49:51.977Z,6.205
2024-03-16T01:50:51.979Z,6.292
2024-03-16T01:51:52.037Z,6.349
2024-03-16T01:52:52.006Z,6.349
2024-03-16T01:53:52.027Z,6.349
2024-03-16T01:54:52.114Z,6.349
2024-03-16T01:55:52.038Z,6.461
2024-03-16T01:56:52.033Z,6.456
2024-03-16T01:57:52.109Z,6.456
2024-03-16T01:58:52.047Z,6.456
2024-03-16T01:59:52.056Z,6.456
2024-03-16T02:00:52.094Z,6.428
2024-03-16T02:01:52.101Z,6.535
2024-03-16T02:02:52.082Z,6.530
2024-03-16T02:03:52.154Z,6.535
2024-03-16T02:04:52.107Z,6.540
2024-03-16T02:05:52.110Z,6.554
2024-03-16T02:06:52.170Z,6.545
2024-03-16T02:07:52.137Z,6.540
2024-03-16T02:08:52.141Z,6.638
2024-03-16T02:09:52.172Z,6.643
2024-03-16T02:10:52.146Z,6.763
2024-03-16T02:11:52.157Z,6.748
2024-03-16T02:12:52.227Z,6.655
2024-03-16T02:13:52.161Z,6.753
2024-03-16T02:14:52.179Z,6.747
2024-03-16T02:15:52.255Z,6.753
2024-03-16T02:16:52.210Z,6.742
2024-03-16T02:17:52.294Z,6.758
2024-03-16T02:18:52.302Z,6.789
2024-03-16T02:19:52.235Z,6.789
2024-03-16T02:20:52.247Z,6.789
2024-03-16T02:21:52.306Z,6.789
2024-03-16T02:22:52.269Z,6.789
2024-03-16T02:23:52.279Z,6.840
2024-03-16T02:24:52.367Z,6.845
2024-03-16T02:25:52.270Z,6.840
2024-03-16T02:26:52.281Z,6.840
2024-03-16T02:27:52.345Z,6.835
2024-03-16T02:28:52.303Z,6.860
2024-03-16T02:29:52.310Z,6.860
2024-03-16T02:30:52.364Z,6.855
2024-03-16T02:31:54.304Z,6.855
2024-03-16T02:32:52.381Z,6.860
2024-03-16T02:33:52.385Z,6.910
2024-03-16T02:34:52.360Z,6.921
2024-03-16T02:35:52.372Z,6.910
2024-03-16T02:36:52.406Z,6.910
2024-03-16T02:37:52.378Z,6.910
2024-03-16T02:38:52.427Z,6.901
2024-03-16T02:39:52.495Z,6.896
2024-03-16T02:40:52.407Z,6.912
2024-03-16T02:41:52.422Z,6.917
2024-03-16T02:42:52.473Z,6.917
2024-03-16T02:43:52.435Z,6.943
2024-03-16T02:44:52.458Z,6.932
2024-03-16T02:45:52.500Z,6.943
2024-03-16T02:46:52.496Z,6.938
2024-03-16T02:47:52.550Z,6.943
2024-03-16T02:48:52.507Z,6.997
2024-03-16T02:49:52.493Z,7.008
2024-03-16T02:50:52.509Z,7.008
2024-03-16T02:51:52.590Z,7.002
2024-03-16T02:52:52.506Z,6.997
2024-03-16T02:53:52.526Z,7.055
2024-03-16T02:54:52.556Z,7.066
2024-03-16T02:55:52.559Z,7.077
2024-03-16T02:56:52.568Z,7.055
2024-03-16T02:57:52.583Z,7.072
2024-03-16T02:58:52.594Z,6.978
2024-03-16T02:59:52.591Z,6.989
2024-03-16T03:00:52.634Z,6.978
2024-03-16T03:01:52.665Z,6.978
2024-03-16T03:02:52.595Z,6.978
2024-03-16T03:03:52.636Z,6.992
2024-03-16T03:04:52.635Z,6.998
2024-03-16T03:05:52.611Z,6.987
2024-03-16T03:06:52.711Z,6.992
2024-03-16T03:07:52.646Z,7.228
2024-03-16T03:08:52.647Z,7.216
2024-03-16T03:09:52.686Z,7.140
2024-03-16T03:10:52.689Z,7.140
2024-03-16T03:11:52.684Z,7.135
2024-03-16T03:12:52.757Z,7.102
2024-03-16T03:13:52.696Z,7.119
2024-03-16T03:14:52.713Z,7.152
2024-03-16T03:15:52.725Z,7.141
2024-03-16T03:16:52.707Z,7.152
2024-03-16T03:17:52.740Z,7.168
2024-03-16T03:18:52.795Z,7.162
2024-03-16T03:19:52.741Z,7.125
2024-03-16T03:20:52.742Z,7.120
2024-03-16T03:21:52.774Z,7.142
2024-03-16T03:22:52.760Z,7.158
2024-03-16T03:23:52.770Z,7.249
2024-03-16T03:24:52.793Z,7.156
2024-03-16T03:25:52.796Z,7.261
2024-03-16T03:26:52.788Z,7.249
2024-03-16T03:27:52.884Z,7.184
2024-03-16T03:28:52.861Z,7.195
2024-03-16T03:29:52.809Z,7.190
2024-03-16T03:30:52.864Z,7.190
2024-03-16T03:31:52.828Z,7.184
2024-03-16T03:32:52.885Z,7.216
2024-03-16T03:33:52.923Z,7.222
2024-03-16T03:34:52.864Z,7.239
2024-03-16T03:35:52.868Z,7.218
2024-03-16T03:36:52.894Z,7.207
2024-03-16T03:37:52.881Z,7.273
2024-03-16T03:38:52.897Z,7.284
2024-03-16T03:39:52.917Z,7.278
2024-03-16T03:40:52.897Z,7.262
2024-03-16T03:41:52.912Z,7.256
2024-03-16T03:42:52.971Z,7.277
2024-03-16T03:43:52.906Z,7.277
2024-03-16T03:44:52.918Z,7.277
2024-03-16T03:45:52.957Z,7.287
2024-03-16T03:46:53.377Z,7.298
2024-03-16T03:47:52.982Z,7.292
2024-03-16T03:48:52.994Z,7.292
2024-03-16T03:49:52.992Z,7.292
2024-03-16T03:50:52.975Z,7.297
2024-03-16T03:51:53.039Z,7.285
2024-03-16T03:52:52.979Z,7.264
2024-03-16T03:53:52.992Z,7.259
2024-03-16T03:54:53.048Z,7.259
2024-03-16T03:55:53.021Z,7.264
2024-03-16T03:56:53.028Z,7.259
2024-03-16T03:57:55.680Z,7.297
2024-03-16T03:58:53.031Z,7.297
2024-03-16T03:59:53.039Z,7.285
2024-03-16T04:00:53.071Z,7.313
2024-03-16T04:01:53.182Z,7.324
2024-03-16T04:02:53.081Z,7.274
2024-03-16T04:03:53.107Z,7.286
2024-03-16T04:04:53.090Z,7.280
2024-03-16T04:05:53.122Z,7.277
2024-03-16T04:06:53.114Z,7.271
2024-03-16T04:07:53.109Z,7.271
2024-03-16T04:08:53.111Z,7.271
2024-03-16T04:10:53.140Z,7.215
2024-03-16T04:11:53.149Z,7.203
2024-03-16T04:12:53.271Z,7.226
2024-03-16T04:13:53.163Z,7.221
2024-03-16T04:14:53.182Z,7.329
2024-03-16T04:15:53.205Z,7.329
2024-03-16T04:16:53.189Z,7.323
2024-03-16T04:17:53.210Z,7.312
2024-03-16T04:18:53.234Z,7.312
2024-03-16T04:19:53.194Z,7.306
2024-03-16T04:20:53.197Z,7.300
2024-03-16T04:21:53.327Z,7.312
2024-03-16T04:22:53.370Z,7.373
2024-03-16T04:23:53.259Z,7.367
2024-03-16T04:24:53.325Z,7.313
2024-03-16T04:25:53.263Z,7.308
2024-03-16T04:26:53.273Z,7.308
2024-03-16T04:27:53.369Z,7.281
2024-03-16T04:28:53.393Z,7.286
2024-03-16T04:29:53.305Z,7.288
2024-03-16T04:30:53.393Z,7.288
2024-03-16T04:31:53.356Z,7.288
2024-03-16T04:32:53.361Z,7.249
2024-03-16T04:33:53.409Z,7.260
2024-03-16T04:34:53.336Z,7.265
2024-03-16T04:35:53.352Z,7.271
2024-03-16T04:36:53.383Z,7.283
2024-03-16T04:37:53.379Z,7.354
2024-03-16T04:38:53.379Z,7.354
2024-03-16T04:39:53.420Z,7.375
2024-03-16T04:40:53.387Z,7.375
2024-03-16T04:41:53.397Z,7.363
2024-03-16T04:42:53.446Z,7.302
2024-03-16T04:43:53.412Z,7.308
2024-03-16T04:44:53.415Z,7.323
2024-03-16T04:45:53.488Z,7.317
2024-03-16T04:46:53.417Z,7.335
2024-03-16T04:47:53.443Z,7.395
2024-03-16T04:48:53.492Z,7.401
2024-03-16T04:49:53.456Z,7.463
2024-03-16T04:50:53.462Z,7.463
2024-03-16T04:51:53.500Z,7.469
2024-03-16T04:52:53.479Z,7.458
2024-03-16T04:53:53.496Z,7.446
2024-03-16T04:54:53.518Z,7.380
2024-03-16T04:55:53.503Z,7.380
2024-03-16T04:56:53.542Z,7.363
2024-03-16T04:57:53.588Z,7.408
2024-03-16T04:58:53.529Z,7.425
2024-03-16T04:59:53.532Z,7.427
2024-03-16T05:00:53.604Z,7.439
2024-03-16T05:01:53.685Z,7.433
2024-03-16T05:02:53.572Z,7.478
2024-03-16T05:03:53.614Z,7.484
2024-03-16T05:04:56.007Z,7.435
2024-03-16T05:05:53.627Z,7.465
2024-03-16T05:06:53.626Z,7.453
2024-03-16T05:07:53.626Z,7.453
2024-03-16T05:08:53.646Z,7.453
2024-03-16T05:09:53.669Z,7.462
2024-03-16T05:10:53.752Z,7.462
2024-03-16T05:11:53.648Z,7.462
2024-03-16T05:12:53.715Z,7.417
2024-03-16T05:13:53.676Z,7.417
2024-03-16T05:14:53.679Z,7.429
2024-03-16T05:15:53.741Z,7.417
2024-03-16T05:16:53.701Z,7.417
2024-03-16T05:17:53.731Z,7.317
2024-03-16T05:18:53.757Z,7.306
2024-03-16T05:19:53.739Z,7.353
2024-03-16T05:20:53.726Z,7.370
2024-03-16T05:21:53.737Z,7.370
2024-03-16T05:22:53.853Z,7.381
2024-03-16T05:23:53.743Z,7.387
2024-03-16T05:24:53.781Z,7.406
2024-03-16T05:25:53.756Z,7.388
2024-03-16T05:26:53.767Z,7.400
2024-03-16T05:27:53.796Z,7.356
2024-03-16T05:28:53.786Z,7.350
2024-03-16T05:29:53.811Z,7.378
2024-03-16T05:30:53.836Z,7.378
2024-03-16T05:31:53.811Z,7.378
2024-03-16T05:32:53.832Z,7.267
2024-03-16T05:33:53.916Z,7.290
2024-03-16T05:34:53.887Z,7.241
2024-03-16T05:35:53.866Z,7.270
2024-03-16T05:36:53.927Z,7.270
2024-03-16T05:37:53.841Z,7.259
2024-03-16T05:38:53.861Z,7.247
2024-03-16T05:39:53.895Z,7.221
2024-03-16T05:40:53.875Z,7.210
2024-03-16T05:41:53.881Z,7.210
2024-03-16T05:42:53.919Z,7.290
2024-03-16T05:43:53.920Z,7.290
2024-03-16T05:44:53.905Z,7.278
2024-03-16T05:45:53.961Z,7.290
2024-03-16T05:46:53.941Z,7.210
2024-03-16T05:47:53.979Z,7.273
2024-03-16T05:48:53.950Z,7.279
2024-03-16T05:49:53.933Z,7.279
2024-03-16T05:50:53.947Z,7.267
2024-03-16T05:51:54.011Z,7.193
2024-03-16T05:52:53.982Z,7.101
2024-03-16T05:53:53.991Z,7.118
2024-03-16T05:54:54.051Z,7.101
2024-03-16T05:55:54.001Z,7.191
2024-03-16T05:56:54.019Z,7.208
2024-03-16T05:57:54.120Z,7.279
2024-03-16T05:58:54.078Z,7.262
2024-03-16T05:59:54.046Z,7.274
2024-03-16T06:00:54.113Z,7.310
2024-03-16T06:01:54.119Z,7.310
2024-03-16T06:02:54.051Z,7.326
2024-03-16T06:03:54.160Z,7.332
2024-03-16T06:04:54.072Z,7.344
2024-03-16T06:05:54.126Z,7.335
2024-03-16T06:06:54.161Z,7.246
2024-03-16T06:07:54.107Z,7.284
2024-03-16T06:08:54.120Z,7.278
2024-03-16T06:09:54.172Z,7.278
2024-03-16T06:10:54.134Z,7.278
2024-03-16T06:11:54.128Z,7.369
2024-03-16T06:12:54.163Z,7.407
2024-03-16T06:13:54.133Z,7.300
2024-03-16T06:14:54.139Z,7.300
2024-03-16T06:15:54.228Z,7.416
2024-03-16T06:16:54.154Z,7.526
2024-03-16T06:17:54.213Z,7.526
2024-03-16T06:18:54.241Z,7.532
2024-03-16T06:19:54.184Z,7.526
2024-03-16T06:20:54.212Z,7.582
2024-03-16T06:21:54.223Z,7.538
2024-03-16T06:22:54.217Z,7.538
2024-03-16T06:23:54.228Z,7.526
2024-03-16T06:24:54.233Z,7.645
2024-03-16T06:25:54.226Z,7.657
2024-03-16T06:26:54.228Z,7.754
2024-03-16T06:27:54.306Z,7.742
2024-03-16T06:28:54.252Z,7.761
2024-03-16T06:29:54.284Z,7.761
2024-03-16T06:30:54.995Z,7.761
2024-03-16T06:31:54.272Z,7.850
2024-03-16T06:32:54.301Z,7.857
2024-03-16T06:33:54.314Z,7.863
2024-03-16T06:34:54.306Z,7.869
2024-03-16T06:35:54.300Z,7.857
2024-03-16T06:36:54.557Z,7.819
2024-03-16T06:37:54.309Z,7.806
2024-03-16T06:38:54.327Z,7.825
2024-03-16T06:39:54.345Z,7.806
2024-03-16T06:40:54.334Z,7.794
2024-03-16T06:41:54.329Z,7.861
2024-03-16T06:42:54.354Z,7.868
2024-03-16T06:43:54.368Z,7.893
2024-03-16T06:44:54.347Z,7.880
2024-03-16T06:45:54.400Z,7.880
2024-03-16T06:46:54.360Z,7.920
2024-03-16T06:47:54.392Z,7.907
2024-03-16T06:48:54.405Z,7.926
2024-03-16T06:49:54.386Z,7.920
2024-03-16T06:50:54.390Z,8.064
2024-03-16T06:51:54.416Z,8.050
2024-03-16T06:52:54.404Z,8.044
2024-03-16T06:53:54.406Z,8.056
2024-03-16T06:54:54.422Z,8.056
2024-03-16T06:55:54.424Z,8.032
2024-03-16T06:56:54.429Z,7.978
2024-03-16T06:57:54.509Z,7.991
2024-03-16T06:58:54.463Z,7.997
2024-03-16T06:59:54.454Z,7.978
2024-03-16T07:00:54.480Z,7.985
2024-03-16T07:01:54.520Z,7.985
2024-03-16T07:02:54.472Z,7.985
2024-03-16T07:03:54.518Z,7.991
2024-03-16T07:04:54.492Z,7.985
2024-03-16T07:05:54.488Z,8.063
2024-03-16T07:06:54.539Z,8.034
2024-03-16T07:07:54.512Z,8.034
2024-03-16T07:08:54.519Z,8.034
2024-03-16T07:09:54.559Z,8.034
2024-03-16T07:10:54.573Z,8.094
2024-03-16T07:11:54.644Z,8.122
2024-03-16T07:12:54.603Z,8.135
2024-03-16T07:13:54.580Z,8.115
2024-03-16T07:14:54.590Z,8.276
2024-03-16T07:15:54.633Z,8.283
2024-03-16T07:16:54.593Z,8.244
2024-03-16T07:17:54.638Z,8.237
2024-03-16T07:18:54.684Z,8.244
2024-03-16T07:19:54.615Z,8.243
2024-03-16T07:20:54.633Z,8.270
2024-03-16T07:21:54.688Z,8.179
2024-03-16T07:22:54.652Z,8.193
2024-03-16T07:23:54.685Z,8.173
2024-03-16T07:24:54.719Z,8.168
2024-03-16T07:25:54.694Z,8.174
2024-03-16T07:26:54.693Z,8.156
2024-03-16T07:27:54.747Z,8.156
2024-03-16T07:28:54.711Z,8.156
2024-03-16T07:29:54.717Z,8.138
2024-03-16T07:30:54.790Z,8.132
2024-03-16T07:31:54.727Z,8.309
2024-03-16T07:32:54.760Z,8.309
2024-03-16T07:33:54.797Z,8.427
2024-03-16T07:34:54.760Z,8.434
2024-03-16T07:35:54.756Z,8.334
2024-03-16T07:36:54.818Z,8.320
2024-03-16T07:37:54.786Z,8.327
2024-03-16T07:38:54.789Z,8.216
2024-03-16T07:39:54.852Z,8.230
2024-03-16T07:40:54.823Z,8.223
2024-03-16T07:41:55.097Z,8.216
2024-03-16T07:42:54.901Z,8.223
2024-03-16T07:43:54.850Z,8.484
2024-03-16T07:44:54.846Z,8.491
2024-03-16T07:45:55.052Z,8.639
2024-03-16T07:46:54.884Z,8.790
2024-03-16T07:47:54.961Z,8.611
2024-03-16T07:48:55.002Z,8.611
2024-03-16T07:49:54.889Z,8.618
2024-03-16T07:50:54.910Z,8.618
2024-03-16T07:51:54.941Z,8.670
2024-03-16T07:52:54.919Z,8.772
2024-03-16T07:53:54.943Z,8.744
2024-03-16T07:54:54.963Z,8.758
2024-03-16T07:55:54.959Z,8.607
2024-03-16T07:56:54.960Z,8.589
2024-03-16T07:57:55.001Z,8.706
2024-03-16T07:58:54.978Z,8.713
2024-03-16T07:59:54.979Z,8.728
2024-03-16T08:00:55.040Z,8.852
2024-03-16T08:01:55.060Z,8.852
2024-03-16T08:02:55.056Z,8.860
2024-03-16T08:03:55.021Z,8.846
2024-03-16T08:04:55.009Z,8.860
2024-03-16T08:05:55.020Z,8.846
2024-03-16T08:06:55.062Z,8.839
2024-03-16T08:07:55.072Z,8.793
2024-03-16T08:08:55.062Z,8.656
2024-03-16T08:09:55.079Z,8.663
2024-03-16T08:10:55.123Z,8.670
2024-03-16T08:11:55.108Z,8.663
2024-03-16T08:12:55.152Z,8.703
2024-03-16T08:13:55.102Z,8.612
2024-03-16T08:14:55.108Z,8.619
2024-03-16T08:15:55.133Z,8.633
2024-03-16T08:16:55.151Z,8.598
2024-03-16T08:17:55.148Z,8.565
2024-03-16T08:18:55.168Z,8.539
2024-03-16T08:19:55.138Z,8.532
2024-03-16T08:20:55.155Z,8.553
2024-03-16T08:21:55.197Z,8.532
2024-03-16T08:22:55.195Z,8.527
2024-03-16T08:23:55.201Z,8.545
2024-03-16T08:24:55.211Z,8.545
2024-03-16T08:25:55.219Z,8.552
2024-03-16T08:26:55.222Z,8.552
2024-03-16T08:27:55.252Z,8.605
2024-03-16T08:28:55.252Z,8.562
2024-03-16T08:29:55.271Z,8.683
2024-03-16T08:30:55.327Z,8.834
2024-03-16T08:31:55.251Z,8.827
2024-03-16T08:32:55.320Z,8.994
2024-03-16T08:33:55.386Z,8.877
2024-03-16T08:34:55.259Z,9.039
2024-03-16T08:35:55.318Z,9.025
2024-03-16T08:36:55.319Z,9.188
2024-03-16T08:37:55.358Z,9.000
2024-03-16T08:38:55.315Z,9.000
2024-03-16T08:39:55.375Z,8.993
2024-03-16T08:40:56.468Z,9.149
2024-03-16T08:41:55.359Z,9.141
2024-03-16T08:42:55.379Z,9.152
2024-03-16T08:43:55.344Z,9.145
2024-03-16T08:44:55.362Z,9.009
2024-03-16T08:45:55.387Z,9.063
2024-03-16T08:46:55.351Z,9.208
2024-03-16T08:47:55.439Z,9.208
2024-03-16T08:48:55.402Z,9.043
2024-03-16T08:49:55.400Z,9.058
2024-03-16T08:50:55.402Z,9.065
2024-03-16T08:51:55.443Z,9.072
2024-03-16T08:52:55.450Z,9.087
2024-03-16T08:53:55.437Z,9.090
2024-03-16T08:54:55.499Z,9.112
2024-03-16T08:55:55.482Z,9.008
2024-03-16T08:56:55.457Z,9.016
2024-03-16T08:57:55.482Z,9.031
2024-03-16T08:58:55.490Z,9.053
2024-03-16T08:59:55.509Z,8.907
2024-03-16T09:00:55.572Z,8.907
2024-03-16T09:01:55.598Z,8.892
2024-03-16T09:02:55.520Z,8.892
2024-03-16T09:03:55.574Z,8.936
2024-03-16T09:04:55.515Z,9.011
2024-03-16T09:05:55.554Z,8.996
2024-03-16T09:06:55.619Z,9.003
2024-03-16T09:07:55.538Z,9.003
2024-03-16T09:08:55.550Z,8.991
2024-03-16T09:09:55.650Z,9.078
2024-03-16T09:10:55.650Z,9.085
2024-03-16T09:11:55.620Z,9.264
2024-03-16T09:12:55.621Z,9.256
2024-03-16T09:13:55.592Z,9.213
2024-03-16T09:14:55.592Z,9.228
2024-03-16T09:15:55.626Z,9.228
2024-03-16T09:16:55.615Z,9.020
2024-03-16T09:17:55.690Z,9.012
2024-03-16T09:18:55.663Z,8.866
2024-03-16T09:19:58.207Z,8.874
2024-03-16T09:20:55.670Z,8.881
2024-03-16T09:21:55.713Z,8.837
2024-03-16T09:22:55.670Z,8.844
2024-03-16T09:23:55.675Z,8.851
2024-03-16T09:24:55.723Z,8.851
2024-03-16T09:25:55.691Z,8.851
2024-03-16T09:26:55.700Z,8.888
2024-03-16T09:27:55.711Z,8.902
2024-03-16T09:28:55.699Z,8.895
2024-03-16T09:29:55.732Z,8.902
2024-03-16T09:30:57.085Z,8.895
2024-03-16T09:31:55.758Z,8.944
2024-03-16T09:32:55.782Z,8.944
2024-03-16T09:33:55.826Z,8.951
2024-03-16T09:34:55.797Z,8.944
2024-03-16T09:35:55.778Z,8.951
2024-03-16T09:36:55.827Z,8.809
2024-03-16T09:37:55.798Z,8.788
2024-03-16T09:38:55.795Z,8.795
2024-03-16T09:39:55.837Z,8.632
2024-03-16T09:40:55.836Z,8.632
2024-03-16T09:41:55.807Z,8.775
2024-03-16T09:42:55.888Z,8.819
2024-03-16T09:43:55.837Z,8.833
2024-03-16T09:44:55.849Z,8.958
2024-03-16T09:45:55.888Z,8.965
2024-03-16T09:46:55.880Z,9.121
2024-03-16T09:47:55.938Z,9.210
2024-03-16T09:48:55.961Z,9.218
2024-03-16T09:49:55.907Z,9.052
2024-03-16T09:50:55.918Z,9.052
2024-03-16T09:51:55.954Z,9.067
2024-03-16T09:52:55.947Z,9.121
2024-03-16T09:53:55.941Z,9.106
2024-03-16T09:54:56.022Z,8.963
2024-03-16T09:55:55.948Z,8.812
2024-03-16T09:56:55.950Z,8.798
2024-03-16T09:57:56.005Z,8.798
2024-03-16T09:58:55.983Z,8.791
2024-03-16T09:59:56.002Z,8.791
2024-03-16T10:00:56.084Z,8.798
2024-03-16T10:01:56.004Z,8.769
2024-03-16T10:02:56.015Z,8.776
2024-03-16T10:03:56.115Z,8.718
2024-03-16T10:04:56.029Z,8.704
2024-03-16T10:05:56.037Z,8.725
2024-03-16T10:06:56.071Z,8.725
2024-03-16T10:07:56.045Z,8.711
2024-03-16T10:08:56.073Z,8.881
2024-03-16T10:09:56.104Z,8.881
2024-03-16T10:10:56.132Z,9.048
2024-03-16T10:11:56.078Z,9.077
2024-03-16T10:12:56.115Z,9.226
2024-03-16T10:13:56.129Z,9.031
2024-03-16T10:14:56.109Z,9.187
2024-03-16T10:15:56.159Z,9.187
2024-03-16T10:16:56.127Z,9.194
2024-03-16T10:17:56.135Z,9.187
2024-03-16T10:18:56.189Z,9.200
2024-03-16T10:19:56.148Z,9.026
2024-03-16T10:20:56.157Z,9.026
2024-03-16T10:21:56.234Z,9.033
2024-03-16T10:22:56.174Z,9.173
2024-03-16T10:23:56.175Z,9.181
2024-03-16T10:24:56.192Z,9.130
2024-03-16T10:25:56.196Z,9.287
2024-03-16T10:26:56.223Z,8.946
2024-03-16T10:27:56.280Z,8.924
2024-03-16T10:28:56.217Z,8.961
2024-03-16T10:29:56.227Z,9.075
2024-03-16T10:30:56.300Z,8.950
2024-03-16T10:31:56.245Z,8.936
2024-03-16T10:32:56.247Z,8.943
2024-03-16T10:33:56.283Z,8.936
2024-03-16T10:34:56.256Z,8.936
2024-03-16T10:35:56.260Z,9.133
2024-03-16T10:36:56.327Z,9.133
2024-03-16T10:37:56.284Z,9.014
2024-03-16T10:38:56.296Z,9.006
2024-03-16T10:39:56.330Z,9.028
2024-03-16T10:40:56.320Z,9.013
2024-03-16T10:41:56.335Z,9.020
2024-03-16T10:42:56.339Z,9.024
2024-03-16T10:43:56.349Z,9.024
2024-03-16T10:44:56.825Z,8.885
2024-03-16T10:45:56.357Z,8.892
2024-03-16T10:46:56.367Z,8.870
2024-03-16T10:47:56.383Z,8.892
2024-03-16T10:48:56.380Z,9.031
2024-03-16T10:49:56.386Z,9.024
2024-03-16T10:50:57.571Z,9.024
2024-03-16T10:51:56.405Z,9.024
2024-03-16T10:52:56.410Z,9.019
2024-03-16T10:53:56.429Z,8.855
2024-03-16T10:54:56.427Z,8.862
2024-03-16T10:55:56.455Z,8.869
2024-03-16T10:56:57.488Z,8.844
2024-03-16T10:57:56.460Z,9.012
2024-03-16T10:58:56.473Z,8.976
2024-03-16T10:59:56.480Z,8.976
2024-03-16T11:00:56.491Z,8.830
2024-03-16T11:01:56.496Z,8.694
2024-03-16T11:02:56.959Z,8.666
2024-03-16T11:03:56.497Z,8.673
2024-03-16T11:04:56.524Z,8.539
2024-03-16T11:05:56.518Z,8.720
2024-03-16T11:06:56.532Z,8.585
2024-03-16T11:07:56.543Z,8.571
2024-03-16T11:08:56.547Z,8.592
2024-03-16T11:09:56.567Z,8.720
2024-03-16T11:10:56.671Z,8.720
2024-03-16T11:11:56.569Z,8.772
2024-03-16T11:12:56.581Z,8.772
2024-03-16T11:13:58.186Z,8.912
2024-03-16T11:14:56.593Z,8.898
2024-03-16T11:15:56.593Z,9.031
2024-03-16T11:16:56.595Z,9.053
2024-03-16T11:17:56.703Z,9.053
2024-03-16T11:18:56.622Z,9.026
2024-03-16T11:19:59.068Z,9.048
2024-03-16T11:20:56.641Z,9.054
2024-03-16T11:21:56.644Z,9.068
2024-03-16T11:22:56.652Z,9.068
2024-03-16T11:23:56.677Z,8.868
2024-03-16T11:24:56.679Z,8.999
2024-03-16T11:25:56.698Z,8.999
2024-03-16T11:26:56.689Z,9.007
2024-03-16T11:27:56.698Z,9.007
2024-03-16T11:28:56.715Z,8.959
2024-03-16T11:29:56.722Z,9.008
2024-03-16T11:30:56.708Z,9.023
2024-03-16T11:31:56.721Z,8.854
2024-03-16T11:32:56.741Z,8.869
2024-03-16T11:33:56.738Z,8.995
2024-03-16T11:34:56.746Z,9.003
2024-03-16T11:35:56.761Z,9.025
2024-03-16T11:36:56.764Z,8.868
2024-03-16T11:37:56.799Z,8.882
2024-03-16T11:38:56.785Z,8.830
2024-03-16T11:39:56.793Z,8.858
2024-03-16T11:40:56.841Z,8.858
2024-03-16T11:41:56.803Z,8.693
2024-03-16T11:42:56.818Z,8.693
2024-03-16T11:43:56.819Z,8.910
2024-03-16T11:44:56.823Z,8.717
2024-03-16T11:45:56.834Z,8.724
2024-03-16T11:46:56.853Z,8.724
2024-03-16T11:47:56.859Z,8.724
2024-03-16T11:48:56.876Z,8.659
2024-03-16T11:49:57.194Z,8.614
2024-03-16T11:50:56.898Z,8.614
2024-03-16T11:51:56.925Z,8.621
2024-03-16T11:52:56.912Z,8.614
2024-03-16T11:53:56.921Z,8.631
2024-03-16T11:54:56.936Z,8.625
2024-03-16T11:55:56.938Z,8.625
2024-03-16T11:56:56.938Z,8.618
2024-03-16T11:57:56.980Z,8.625
2024-03-16T11:58:56.947Z,8.510
2024-03-16T11:59:56.976Z,8.504
2024-03-16T12:00:59.085Z,8.635
2024-03-16T12:01:56.981Z,8.533
2024-03-16T12:02:57.057Z,8.526
2024-03-16T12:03:57.004Z,8.474
2024-03-16T12:04:57.011Z,8.618
2024-03-16T12:05:57.037Z,8.612
2024-03-16T12:06:57.030Z,8.633
2024-03-16T12:07:57.081Z,8.369
2024-03-16T12:08:57.149Z,8.342
2024-03-16T12:09:57.159Z,8.356
2024-03-16T12:10:57.107Z,8.201
2024-03-16T12:11:57.118Z,8.201
2024-03-16T12:12:57.101Z,8.159
2024-03-16T12:13:57.137Z,8.153
2024-03-16T12:14:57.140Z,8.179
2024-03-16T12:15:57.123Z,8.136
2024-03-16T12:16:57.149Z,8.149
2024-03-16T12:17:57.151Z,8.170
2024-03-16T12:18:57.144Z,8.157
2024-03-16T12:19:57.238Z,8.150
2024-03-16T12:20:57.148Z,8.268
2024-03-16T12:21:57.236Z,8.268
2024-03-16T12:22:57.160Z,8.279
2024-03-16T12:23:57.268Z,8.279
2024-03-16T12:24:57.210Z,8.279
2024-03-16T12:25:57.190Z,8.235
2024-03-16T12:26:57.221Z,8.248
2024-03-16T12:27:57.275Z,8.040
2024-03-16T12:28:57.285Z,8.040
2024-03-16T12:29:57.218Z,8.053
2024-03-16T12:30:57.222Z,7.872
2024-03-16T12:31:57.242Z,7.879
2024-03-16T12:32:57.312Z,7.915
2024-03-16T12:33:57.261Z,7.909
2024-03-16T12:34:57.259Z,7.915
2024-03-16T12:35:57.368Z,7.862
2024-03-16T12:36:57.266Z,7.862
2024-03-16T12:37:57.347Z,7.904
2024-03-16T12:38:57.315Z,7.904
2024-03-16T12:39:57.300Z,7.904
2024-03-16T12:40:57.313Z,7.934
2024-03-16T12:41:59.711Z,7.928
2024-03-16T12:42:57.356Z,7.929
2024-03-16T12:43:57.388Z,7.941
2024-03-16T12:44:57.354Z,7.922
2024-03-16T12:45:57.367Z,7.929
2024-03-16T12:46:57.412Z,7.941
2024-03-16T12:47:59.379Z,7.934
2024-03-16T12:48:57.389Z,7.823
2024-03-16T12:49:57.483Z,7.823
2024-03-16T12:50:57.411Z,7.817
2024-03-16T12:51:57.396Z,7.917
2024-03-16T12:52:57.418Z,7.929
2024-03-16T12:53:57.470Z,7.923